createdAt,value
2018-09-16T00:01:49.879Z,80.57
2018-09-16T00:04:18.234Z,81.29
2018-09-16T00:06:46.614Z,81.33
2018-09-16T00:09:14.994Z,80.63
2018-09-16T00:11:43.382Z,81.20
2018-09-16T00:14:11.945Z,80.99
2018-09-16T00:16:40.327Z,81.53
2018-09-16T00:19:08.691Z,80.64
2018-09-16T00:21:37.333Z,81.71
2018-09-16T00:24:05.714Z,81.60
2018-09-16T00:26:34.072Z,81.06
2018-09-16T00:29:02.462Z,80.74
2018-09-16T00:31:30.826Z,80.67
2018-09-16T00:33:59.202Z,80.75
2018-09-16T00:36:27.554Z,81.12
2018-09-16T00:38:55.949Z,80.98
2018-09-16T00:41:24.310Z,81.38
2018-09-16T00:43:52.716Z,81.58
2018-09-16T00:46:21.073Z,81.10
2018-09-16T00:48:49.470Z,81.16
2018-09-16T00:51:17.822Z,81.15
2018-09-16T00:53:46.202Z,81.47
2018-09-16T00:56:14.583Z,81.30
2018-09-16T00:58:42.962Z,81.60
2018-09-16T01:01:11.314Z,80.88
2018-09-16T01:03:39.694Z,81.19
2018-09-16T01:06:13.357Z,81.41
2018-09-16T01:08:41.747Z,80.80
2018-09-16T01:11:10.140Z,80.83
2018-09-16T01:13:38.531Z,81.09
2018-09-16T01:16:06.895Z,81.75
2018-09-16T01:18:35.270Z,81.25
2018-09-16T01:21:03.622Z,81.73
2018-09-16T01:23:32.045Z,81.99
2018-09-16T01:26:00.393Z,81.34
2018-09-16T01:28:28.786Z,81.87
2018-09-16T01:30:57.155Z,81.80
2018-09-16T01:33:25.586Z,81.97
2018-09-16T01:35:53.957Z,81.89
2018-09-16T01:38:22.515Z,81.36
2018-09-16T01:40:51.687Z,81.52
2018-09-16T01:43:20.394Z,81.32
2018-09-16T01:45:48.765Z,81.58
2018-09-16T01:48:17.158Z,81.34
2018-09-16T01:50:45.587Z,81.54
2018-09-16T01:53:13.979Z,81.00
2018-09-16T01:55:42.361Z,81.65
2018-09-16T01:58:10.741Z,81.35
2018-09-16T02:00:39.103Z,81.47
2018-09-16T02:03:07.507Z,81.63
2018-09-16T02:05:41.274Z,81.22
2018-09-16T02:08:09.675Z,81.67
2018-09-16T02:10:38.046Z,81.70
2018-09-16T02:13:06.658Z,81.95
2018-09-16T02:15:35.023Z,81.93
2018-09-16T02:18:03.410Z,82.10
2018-09-16T02:20:31.785Z,82.10
2018-09-16T02:23:00.202Z,81.65
2018-09-16T02:25:28.581Z,81.55
2018-09-16T02:27:57.053Z,81.88
2018-09-16T02:30:25.429Z,82.78
2018-09-16T02:32:53.815Z,82.47
2018-09-16T02:35:22.211Z,81.87
2018-09-16T02:37:50.580Z,82.51
2018-09-16T02:40:18.970Z,82.39
2018-09-16T02:42:47.343Z,82.89
2018-09-16T02:45:15.735Z,82.79
2018-09-16T02:47:44.101Z,82.83
2018-09-16T02:50:12.497Z,82.73
2018-09-16T02:52:40.867Z,82.44
2018-09-16T02:55:09.261Z,83.28
2018-09-16T02:57:37.803Z,82.48
2018-09-16T03:00:06.508Z,82.49
2018-09-16T03:02:34.973Z,83.05
2018-09-16T03:05:03.403Z,83.15
2018-09-16T03:07:32.029Z,82.58
2018-09-16T03:10:00.422Z,82.34
2018-09-16T03:12:28.898Z,82.81
2018-09-16T03:14:57.281Z,82.63
2018-09-16T03:17:25.655Z,82.48
2018-09-16T03:19:54.134Z,83.26
2018-09-16T03:22:22.507Z,82.84
2018-09-16T03:24:50.922Z,82.34
2018-09-16T03:27:19.291Z,82.54
2018-09-16T03:29:47.683Z,83.00
2018-09-16T03:32:16.049Z,82.38
2018-09-16T03:34:44.438Z,83.16
2018-09-16T03:37:12.811Z,82.47
2018-09-16T03:39:41.199Z,82.51
2018-09-16T03:42:09.576Z,82.78
2018-09-16T03:44:37.966Z,82.33
2018-09-16T03:47:06.338Z,83.08
2018-09-16T03:49:34.722Z,82.55
2018-09-16T03:52:03.091Z,83.28
2018-09-16T03:54:31.477Z,82.75
2018-09-16T03:56:59.847Z,83.06
2018-09-16T03:59:28.234Z,83.54
2018-09-16T04:01:56.676Z,83.08
2018-09-16T04:04:25.771Z,83.03
2018-09-16T04:06:54.131Z,83.27
2018-09-16T04:09:22.519Z,83.37
2018-09-16T04:11:50.905Z,84.14
2018-09-16T04:14:19.299Z,84.48
2018-09-16T04:16:47.669Z,84.90
2018-09-16T04:19:16.070Z,84.33
2018-09-16T04:21:44.445Z,86.09
2018-09-16T04:24:12.864Z,86.30
2018-09-16T04:26:41.237Z,86.59
2018-09-16T04:29:09.611Z,86.00
2018-09-16T04:31:38.092Z,86.47
2018-09-16T04:34:06.464Z,87.17
2018-09-16T04:36:34.858Z,86.83
2018-09-16T04:39:03.514Z,87.19
2018-09-16T04:41:31.906Z,86.29
2018-09-16T04:44:00.276Z,86.32
2018-09-16T04:46:28.838Z,85.91
2018-09-16T04:48:57.202Z,85.64
2018-09-16T04:51:25.597Z,86.17
2018-09-16T04:53:54.098Z,85.69
2018-09-16T04:56:22.494Z,85.74
2018-09-16T04:58:50.870Z,86.20
2018-09-16T05:01:19.258Z,85.76
2018-09-16T05:03:47.626Z,85.71
2018-09-16T05:06:16.018Z,85.74
2018-09-16T05:08:44.561Z,86.28
2018-09-16T05:11:13.237Z,86.74
2018-09-16T05:13:41.630Z,85.81
2018-09-16T05:16:10.018Z,86.22
2018-09-16T05:18:38.450Z,85.89
2018-09-16T05:21:06.856Z,85.54
2018-09-16T05:23:35.251Z,86.23
2018-09-16T05:26:03.783Z,85.46
2018-09-16T05:28:32.152Z,85.93
2018-09-16T05:31:00.546Z,85.93
2018-09-16T05:33:28.918Z,86.54
2018-09-16T05:35:57.309Z,85.97
2018-09-16T05:38:25.673Z,86.03
2018-09-16T05:40:54.067Z,85.79
2018-09-16T05:43:22.480Z,85.11
2018-09-16T05:45:50.854Z,85.71
2018-09-16T05:48:19.235Z,85.72
2018-09-16T05:50:47.630Z,85.73
2018-09-16T05:53:16.151Z,84.75
2018-09-16T05:55:44.422Z,84.59
2018-09-16T05:58:12.790Z,85.30
2018-09-16T06:00:41.187Z,84.86
2018-09-16T06:03:09.563Z,84.84
2018-09-16T06:05:37.954Z,84.42
2018-09-16T06:08:06.519Z,84.20
2018-09-16T06:10:34.912Z,84.64
2018-09-16T06:13:03.293Z,83.70
2018-09-16T06:15:31.685Z,84.06
2018-09-16T06:18:00.047Z,83.62
2018-09-16T06:20:28.442Z,84.19
2018-09-16T06:22:56.806Z,84.13
2018-09-16T06:25:25.232Z,83.94
2018-09-16T06:27:53.611Z,83.33
2018-09-16T06:30:22.018Z,83.60
2018-09-16T06:32:50.386Z,83.96
2018-09-16T06:35:18.759Z,82.87
2018-09-16T06:37:47.253Z,82.48
2018-09-16T06:40:15.830Z,82.81
2018-09-16T06:42:44.222Z,81.86
2018-09-16T06:45:12.589Z,82.09
2018-09-16T06:47:41.201Z,81.81
2018-09-16T06:50:09.587Z,81.29
2018-09-16T06:52:37.978Z,81.52
2018-09-16T06:55:06.890Z,81.41
2018-09-16T06:57:35.447Z,81.46
2018-09-16T07:00:04.253Z,81.43
2018-09-16T07:02:32.650Z,81.49
2018-09-16T07:05:02.298Z,80.85
2018-09-16T07:07:30.731Z,80.35
2018-09-16T07:09:59.099Z,80.21
2018-09-16T07:12:27.505Z,79.93
2018-09-16T07:14:55.988Z,79.41
2018-09-16T07:17:24.389Z,79.02
2018-09-16T07:19:52.755Z,78.93
2018-09-16T07:22:21.148Z,78.79
2018-09-16T07:24:49.539Z,77.47
2018-09-16T07:27:17.982Z,77.58
2018-09-16T07:29:46.375Z,75.65
2018-09-16T07:32:14.753Z,74.08
2018-09-16T07:34:43.139Z,73.52
2018-09-16T07:37:11.532Z,73.56
2018-09-16T07:39:39.903Z,73.31
2018-09-16T07:42:08.302Z,73.19
2018-09-16T07:44:36.681Z,72.36
2018-09-16T07:47:05.075Z,71.36
2018-09-16T07:49:33.463Z,71.06
2018-09-16T07:52:01.858Z,71.22
2018-09-16T07:54:30.230Z,70.54
2018-09-16T07:56:58.619Z,70.50
2018-09-16T07:59:26.992Z,70.34
2018-09-16T08:01:55.387Z,68.92
2018-09-16T08:04:23.810Z,69.21
2018-09-16T08:06:52.202Z,69.17
2018-09-16T08:09:20.575Z,68.69
2018-09-16T08:11:49.149Z,68.84
2018-09-16T08:14:17.514Z,68.24
2018-09-16T08:16:45.910Z,66.75
2018-09-16T08:19:14.285Z,64.72
2018-09-16T08:21:42.645Z,64.13
2018-09-16T08:24:11.067Z,64.06
2018-09-16T08:26:39.517Z,63.48
2018-09-16T08:29:07.943Z,63.83
2018-09-16T08:31:36.319Z,63.56
2018-09-16T08:34:04.829Z,64.65
2018-09-16T08:36:33.190Z,64.29
2018-09-16T08:39:01.578Z,63.07
2018-09-16T08:41:29.999Z,62.72
2018-09-16T08:43:58.388Z,64.35
2018-09-16T08:46:26.930Z,63.63
2018-09-16T08:48:55.327Z,64.56
2018-09-16T08:51:23.711Z,63.55
2018-09-16T08:53:52.302Z,63.60
2018-09-16T08:56:20.798Z,63.05
2018-09-16T08:58:49.194Z,62.57
2018-09-16T09:01:17.591Z,61.23
2018-09-16T09:03:46.014Z,60.72
2018-09-16T09:06:14.539Z,61.44
2018-09-16T09:08:42.925Z,60.74
2018-09-16T09:11:11.298Z,61.17
2018-09-16T09:13:39.701Z,59.91
2018-09-16T09:16:08.065Z,60.52
2018-09-16T09:18:36.472Z,60.25
2018-09-16T09:21:04.837Z,60.34
2018-09-16T09:23:33.246Z,60.37
2018-09-16T09:26:01.617Z,59.49
2018-09-16T09:28:30.002Z,59.28
2018-09-16T09:30:58.423Z,58.91
2018-09-16T09:33:26.806Z,58.25
2018-09-16T09:35:55.172Z,58.76
2018-09-16T09:38:23.558Z,59.09
2018-09-16T09:40:52.144Z,56.69
2018-09-16T09:43:20.537Z,56.41
2018-09-16T09:45:49.313Z,56.71
2018-09-16T09:48:17.689Z,55.99
2018-09-16T09:50:46.058Z,56.53
2018-09-16T09:53:14.451Z,57.49
2018-09-16T09:55:42.823Z,56.83
2018-09-16T09:58:11.212Z,57.43
2018-09-16T10:00:44.982Z,53.75
2018-09-16T10:03:13.454Z,53.17
2018-09-16T10:05:41.827Z,54.17
2018-09-16T10:08:10.238Z,54.73
2018-09-16T10:10:38.606Z,54.30
2018-09-16T10:13:07.323Z,54.54
2018-09-16T10:15:35.696Z,54.46
2018-09-16T10:18:04.102Z,54.83
2018-09-16T10:20:32.782Z,53.85
2018-09-16T10:23:01.510Z,53.64
2018-09-16T10:25:29.918Z,54.48
2018-09-16T10:27:58.464Z,54.26
2018-09-16T10:30:26.901Z,52.95
2018-09-16T10:32:55.485Z,53.03
2018-09-16T10:35:23.873Z,52.69
2018-09-16T10:37:52.233Z,52.84
2018-09-16T10:40:20.659Z,53.27
2018-09-16T10:42:49.022Z,53.00
2018-09-16T10:45:17.406Z,51.73
2018-09-16T10:47:45.835Z,52.66
2018-09-16T10:50:14.410Z,50.96
2018-09-16T10:52:42.865Z,51.09
2018-09-16T10:55:11.355Z,51.82
2018-09-16T10:57:39.815Z,51.31
2018-09-16T11:00:08.197Z,52.06
2018-09-16T11:02:37.074Z,50.60
2018-09-16T11:05:05.802Z,50.95
2018-09-16T11:07:34.178Z,50.58
2018-09-16T11:10:02.584Z,50.20
2018-09-16T11:12:31.010Z,50.92
2018-09-16T11:14:59.411Z,50.29
2018-09-16T11:17:27.775Z,49.74
2018-09-16T11:19:56.179Z,49.63
2018-09-16T11:22:24.737Z,50.60
2018-09-16T11:24:53.171Z,50.51
2018-09-16T11:27:21.537Z,49.69
2018-09-16T11:29:49.932Z,50.23
2018-09-16T11:32:18.311Z,50.08
2018-09-16T11:34:46.710Z,48.90
2018-09-16T11:37:15.080Z,49.35
2018-09-16T11:39:43.483Z,49.07
2018-09-16T11:42:11.852Z,49.96
2018-09-16T11:44:40.253Z,49.34
2018-09-16T11:47:08.711Z,49.47
2018-09-16T11:49:37.098Z,49.13
2018-09-16T11:52:05.494Z,49.14
2018-09-16T11:54:33.882Z,48.67
2018-09-16T11:57:02.250Z,48.48
2018-09-16T11:59:30.642Z,48.12
2018-09-16T12:01:59.055Z,48.33
2018-09-16T12:04:27.447Z,47.77
2018-09-16T12:06:55.826Z,48.76
2018-09-16T12:09:24.217Z,48.24
2018-09-16T12:11:52.607Z,47.93
2018-09-16T12:14:21.004Z,47.06
2018-09-16T12:16:49.373Z,46.65
2018-09-16T12:19:17.818Z,46.19
2018-09-16T12:21:46.187Z,45.96
2018-09-16T12:24:14.574Z,46.40
2018-09-16T12:26:42.975Z,46.28
2018-09-16T12:29:11.351Z,45.83
2018-09-16T12:31:39.766Z,46.23
2018-09-16T12:34:08.191Z,46.73
2018-09-16T12:36:36.775Z,45.68
2018-09-16T12:39:10.322Z,46.12
2018-09-16T12:41:38.701Z,46.00
2018-09-16T12:44:07.330Z,45.77
2018-09-16T12:46:35.752Z,45.62
2018-09-16T12:49:04.118Z,45.17
2018-09-16T12:51:32.554Z,44.76
2018-09-16T12:54:00.906Z,45.68
2018-09-16T12:56:29.624Z,45.54
2018-09-16T12:58:58.019Z,44.72
2018-09-16T13:01:26.403Z,45.18
2018-09-16T13:03:54.771Z,44.56
2018-09-16T13:06:23.346Z,43.56
2018-09-16T13:08:51.798Z,43.67
2018-09-16T13:11:20.190Z,44.79
2018-09-16T13:13:48.551Z,44.03
2018-09-16T13:16:16.943Z,44.29
2018-09-16T13:18:45.366Z,43.47
2018-09-16T13:21:13.770Z,44.21
2018-09-16T13:23:42.487Z,44.10
2018-09-16T13:26:10.866Z,43.08
2018-09-16T13:28:39.577Z,43.33
2018-09-16T13:31:07.967Z,43.78
2018-09-16T13:33:36.333Z,43.76
2018-09-16T13:36:04.731Z,43.43
2018-09-16T13:38:33.118Z,43.99
2018-09-16T13:41:01.507Z,43.03
2018-09-16T13:43:30.022Z,43.26
2018-09-16T13:45:58.706Z,42.68
2018-09-16T13:48:27.073Z,42.88
2018-09-16T13:50:55.460Z,43.32
2018-09-16T13:53:25.150Z,42.77
2018-09-16T13:55:53.611Z,42.43
2018-09-16T13:58:21.978Z,43.62
2018-09-16T14:03:12.005Z,43.49
2018-09-16T14:05:40.398Z,42.74
2018-09-16T14:08:08.796Z,43.39
2018-09-16T14:10:37.301Z,42.60
2018-09-16T14:13:05.728Z,42.43
2018-09-16T14:15:34.135Z,42.07
2018-09-16T14:18:02.501Z,43.35
2018-09-16T14:20:30.882Z,41.84
2018-09-16T14:22:59.245Z,42.62
2018-09-16T14:25:27.630Z,42.26
2018-09-16T14:27:56.027Z,41.42
2018-09-16T14:30:24.394Z,42.06
2018-09-16T14:32:52.786Z,41.60
2018-09-16T14:35:21.165Z,41.29
2018-09-16T14:37:49.625Z,40.81
2018-09-16T14:40:17.995Z,41.82
2018-09-16T14:42:46.394Z,40.95
2018-09-16T14:45:14.794Z,41.08
2018-09-16T14:47:44.002Z,40.75
2018-09-16T14:50:12.372Z,41.13
2018-09-16T14:52:40.966Z,41.90
2018-09-16T14:55:09.339Z,40.33
2018-09-16T14:57:37.726Z,41.26
2018-09-16T15:00:06.197Z,40.73
2018-09-16T15:02:34.587Z,41.83
2018-09-16T15:05:02.978Z,41.37
2018-09-16T15:07:31.397Z,40.95
2018-09-16T15:09:59.767Z,41.77
2018-09-16T15:12:28.177Z,41.74
2018-09-16T15:14:56.571Z,42.30
2018-09-16T15:17:25.101Z,41.21
2018-09-16T15:19:53.470Z,41.93
2018-09-16T15:22:21.857Z,41.53
2018-09-16T15:24:50.250Z,41.94
2018-09-16T15:27:18.638Z,42.47
2018-09-16T15:29:47.003Z,42.77
2018-09-16T15:32:15.394Z,42.15
2018-09-16T15:34:43.767Z,43.08
2018-09-16T15:37:12.167Z,42.92
2018-09-16T15:39:40.534Z,43.83
2018-09-16T15:42:08.953Z,43.53
2018-09-16T15:44:37.320Z,44.00
2018-09-16T15:47:05.723Z,43.69
2018-09-16T15:49:34.085Z,43.99
2018-09-16T15:52:02.479Z,44.19
2018-09-16T15:54:30.838Z,43.86
2018-09-16T15:56:59.230Z,43.84
2018-09-16T15:59:27.597Z,44.68
2018-09-16T16:01:56.128Z,44.32
2018-09-16T16:04:24.491Z,44.93
2018-09-16T16:06:52.873Z,44.84
2018-09-16T16:09:21.239Z,45.09
2018-09-16T16:11:50.144Z,45.01
2018-09-16T16:14:18.507Z,45.71
2018-09-16T16:16:46.945Z,44.79
2018-09-16T16:19:15.314Z,44.67
2018-09-16T16:21:43.726Z,44.10
2018-09-16T16:24:12.187Z,43.76
2018-09-16T16:26:40.558Z,43.72
2018-09-16T16:29:08.982Z,43.89
2018-09-16T16:31:37.362Z,43.59
2018-09-16T16:34:05.747Z,44.51
2018-09-16T16:36:34.109Z,44.25
2018-09-16T16:39:02.515Z,44.90
2018-09-16T16:41:30.875Z,45.54
2018-09-16T16:43:59.262Z,45.85
2018-09-16T16:46:27.626Z,46.10
2018-09-16T16:48:56.022Z,45.99
2018-09-16T16:51:24.396Z,46.22
2018-09-16T16:53:52.790Z,47.02
2018-09-16T16:56:21.154Z,47.15
2018-09-16T16:58:49.552Z,47.44
2018-09-16T17:01:18.014Z,48.32
2018-09-16T17:03:46.354Z,48.81
2018-09-16T17:06:14.736Z,48.36
2018-09-16T17:08:43.163Z,49.42
2018-09-16T17:11:11.538Z,49.56
2018-09-16T17:13:39.954Z,50.06
2018-09-16T17:16:08.410Z,50.29
2018-09-16T17:18:36.789Z,50.19
2018-09-16T17:21:05.154Z,49.98
2018-09-16T17:23:33.621Z,50.39
2018-09-16T17:26:01.963Z,49.92
2018-09-16T17:28:30.358Z,50.98
2018-09-16T17:30:58.735Z,50.28
2018-09-16T17:33:27.122Z,50.97
2018-09-16T17:35:55.495Z,50.73
2018-09-16T17:38:23.959Z,49.72
2018-09-16T17:40:52.318Z,49.46
2018-09-16T17:43:20.713Z,50.29
2018-09-16T17:45:49.078Z,49.28
2018-09-16T17:48:17.466Z,49.82
2018-09-16T17:50:45.866Z,49.84
2018-09-16T17:53:15.271Z,49.86
2018-09-16T17:55:43.639Z,49.64
2018-09-16T17:58:12.031Z,49.77
2018-09-16T18:00:40.398Z,49.63
2018-09-16T18:03:08.783Z,48.55
2018-09-16T18:05:37.155Z,49.45
2018-09-16T18:08:05.542Z,48.92
2018-09-16T18:10:34.007Z,49.71
2018-09-16T18:13:02.339Z,49.41
2018-09-16T18:15:30.702Z,50.21
2018-09-16T18:17:59.095Z,50.59
2018-09-16T18:20:27.459Z,49.96
2018-09-16T18:22:55.826Z,50.75
2018-09-16T18:25:24.233Z,50.18
2018-09-16T18:27:52.603Z,51.01
2018-09-16T18:30:20.997Z,50.89
2018-09-16T18:32:49.372Z,50.57
2018-09-16T18:35:17.792Z,51.02
2018-09-16T18:37:46.167Z,51.39
2018-09-16T18:40:14.595Z,51.00
2018-09-16T18:42:42.958Z,50.88
2018-09-16T18:45:11.361Z,50.90
2018-09-16T18:47:39.730Z,50.99
2018-09-16T18:50:08.130Z,51.33
2018-09-16T18:52:36.527Z,51.20
2018-09-16T18:55:05.087Z,51.51
2018-09-16T18:57:33.449Z,51.48
2018-09-16T19:00:01.837Z,51.37
2018-09-16T19:02:30.207Z,52.21
2018-09-16T19:04:58.594Z,51.89
2018-09-16T19:07:26.970Z,51.83
2018-09-16T19:09:55.357Z,52.14
2018-09-16T19:12:23.731Z,52.70
2018-09-16T19:14:52.130Z,52.63
2018-09-16T19:17:20.498Z,52.87
2018-09-16T19:19:48.943Z,53.40
2018-09-16T19:22:17.290Z,54.10
2018-09-16T19:24:45.711Z,53.51
2018-09-16T19:27:14.083Z,54.14
2018-09-16T19:29:42.470Z,54.42
2018-09-16T19:32:10.846Z,54.57
2018-09-16T19:34:39.243Z,53.92
2018-09-16T19:37:07.623Z,54.22
2018-09-16T19:39:36.010Z,54.88
2018-09-16T19:42:04.378Z,54.83
2018-09-16T19:44:33.390Z,55.12
2018-09-16T19:47:01.763Z,54.46
2018-09-16T19:49:30.157Z,55.84
2018-09-16T19:51:58.530Z,55.34
2018-09-16T19:54:26.939Z,55.82
2018-09-16T19:56:55.312Z,55.55
2018-09-16T19:59:23.707Z,56.12
2018-09-16T20:01:52.191Z,55.84
2018-09-16T20:04:20.586Z,55.95
2018-09-16T20:06:48.963Z,55.92
2018-09-16T20:09:17.358Z,55.44
2018-09-16T20:11:45.733Z,55.23
2018-09-16T20:14:14.134Z,55.67
2018-09-16T20:16:42.511Z,54.98
2018-09-16T20:19:10.893Z,55.07
2018-09-16T20:21:39.330Z,55.48
2018-09-16T20:24:07.701Z,56.20
2018-09-16T20:26:36.103Z,55.91
2018-09-16T20:29:04.469Z,56.49
2018-09-16T20:31:32.862Z,56.69
2018-09-16T20:34:01.239Z,56.65
2018-09-16T20:36:29.630Z,57.18
2018-09-16T20:38:57.995Z,56.79
2018-09-16T20:41:26.390Z,56.71
2018-09-16T20:43:54.778Z,57.53
2018-09-16T20:46:23.167Z,57.77
2018-09-16T20:48:51.535Z,58.01
2018-09-16T20:51:20.007Z,57.37
2018-09-16T20:53:48.431Z,57.49
2018-09-16T20:56:16.866Z,57.86
2018-09-16T20:58:45.234Z,58.31
2018-09-16T21:01:13.634Z,58.79
2018-09-16T21:03:42.037Z,58.88
2018-09-16T21:06:10.431Z,58.62
2018-09-16T21:08:38.794Z,58.96
2018-09-16T21:11:07.305Z,59.38
2018-09-16T21:13:35.711Z,59.31
2018-09-16T21:16:04.099Z,59.11
2018-09-16T21:18:32.470Z,59.94
2018-09-16T21:21:00.862Z,60.45
2018-09-16T21:23:29.248Z,60.25
2018-09-16T21:25:57.694Z,61.02
2018-09-16T21:28:26.034Z,61.07
2018-09-16T21:30:54.422Z,60.60
2018-09-16T21:33:22.790Z,61.42
2018-09-16T21:35:51.189Z,61.23
2018-09-16T21:38:19.550Z,61.74
2018-09-16T21:40:47.933Z,61.77
2018-09-16T21:43:17.299Z,61.68
2018-09-16T21:45:45.734Z,61.38
2018-09-16T21:48:14.104Z,61.52
2018-09-16T21:50:42.506Z,62.19
2018-09-16T21:53:10.872Z,62.26
2018-09-16T21:55:39.262Z,61.77
2018-09-16T21:58:07.627Z,62.07
2018-09-16T22:00:36.014Z,61.81
2018-09-16T22:03:04.381Z,62.58
2018-09-16T22:05:32.766Z,63.03
2018-09-16T22:08:01.143Z,63.03
2018-09-16T22:10:29.695Z,63.55
2018-09-16T22:12:58.071Z,63.18
2018-09-16T22:15:26.439Z,63.61
2018-09-16T22:17:54.826Z,63.75
2018-09-16T22:20:23.203Z,63.16
2018-09-16T22:22:51.591Z,63.42
2018-09-16T22:25:20.038Z,63.45
2018-09-16T22:27:48.427Z,63.43
2018-09-16T22:30:16.797Z,63.23
2018-09-16T22:32:45.199Z,62.92
2018-09-16T22:35:13.660Z,62.31
2018-09-16T22:37:42.005Z,62.77
2018-09-16T22:40:10.404Z,61.66
2018-09-16T22:42:38.807Z,62.29
2018-09-16T22:45:07.259Z,61.97
2018-09-16T22:47:35.642Z,61.87
2018-09-16T22:50:04.021Z,62.27
2018-09-16T22:52:32.443Z,61.54
2018-09-16T22:55:00.878Z,61.81
2018-09-16T22:57:29.278Z,62.06
2018-09-16T22:59:57.647Z,61.89
2018-09-16T23:02:26.037Z,61.78
2018-09-16T23:04:54.408Z,62.30
2018-09-16T23:07:22.794Z,61.62
2018-09-16T23:09:51.163Z,62.43
2018-09-16T23:12:19.571Z,62.23
2018-09-16T23:14:48.017Z,62.72
2018-09-16T23:17:16.405Z,62.26
2018-09-16T23:19:44.783Z,63.10
2018-09-16T23:22:13.166Z,63.36
2018-09-16T23:24:41.556Z,63.29
2018-09-16T23:27:09.947Z,62.58
2018-09-16T23:29:38.323Z,62.59
2018-09-16T23:32:06.709Z,62.51
2018-09-16T23:34:35.070Z,63.14
2018-09-16T23:37:03.458Z,63.15
2018-09-16T23:39:31.825Z,62.61
2018-09-16T23:42:00.211Z,62.95
2018-09-16T23:44:28.787Z,62.62
2018-09-16T23:46:57.305Z,62.65
2018-09-16T23:49:25.679Z,62.71
2018-09-16T23:51:54.081Z,62.80
2018-09-16T23:54:22.454Z,63.62
2018-09-16T23:56:50.854Z,62.91
2018-09-16T23:59:19.227Z,63.07
